Time;durP1;ratioP1;P1;durP2;ratioP2;P2;SDS_P1;SDS_P2;PMS_P1;PMS_P2;Temp;Humidity;BMP_temperature;BMP_pressure;BME280_temperature;BME280_humidity;BME280_pressure;Samples;Min_cycle;Max_cycle;Signal;HPM_P1;HPM_P2
2021/03/26 00:00:17;;;;;;;0.70;0.60;;;18.80;62.40;;;;;;5048095;28;20033;-33
2021/03/26 00:02:42;;;;;;;1.02;0.60;;;18.80;62.50;;;;;;5050110;28;20836;-36
2021/03/26 00:05:09;;;;;;;0.98;0.50;;;18.80;62.60;;;;;;5048019;28;20037;-41
2021/03/26 00:07:35;;;;;;;0.80;0.63;;;18.80;62.60;;;;;;5050372;28;20032;-34
2021/03/26 00:10:00;;;;;;;0.63;0.50;;;18.80;62.60;;;;;;5045655;28;20025;-36
2021/03/26 00:12:27;;;;;;;0.55;0.43;;;18.80;62.60;;;;;;5044173;28;20022;-36
2021/03/26 00:14:53;;;;;;;0.60;0.60;;;18.80;62.70;;;;;;5040189;28;20080;-36
2021/03/26 00:17:18;;;;;;;0.40;0.40;;;18.80;62.70;;;;;;5049476;28;20080;-36
2021/03/26 00:19:44;;;;;;;0.60;0.50;;;18.70;62.60;;;;;;5044656;28;20025;-34
2021/03/26 00:22:09;;;;;;;0.52;0.43;;;18.70;62.60;;;;;;5051300;28;20142;-35
2021/03/26 00:24:35;;;;;;;0.60;0.60;;;18.70;62.50;;;;;;5052321;28;20029;-34
2021/03/26 00:27:00;;;;;;;1.08;0.60;;;18.80;62.50;;;;;;5051037;28;20041;-33
2021/03/26 00:29:26;;;;;;;0.68;0.68;;;18.80;62.50;;;;;;5043017;28;20455;-36
2021/03/26 00:31:52;;;;;;;1.08;0.55;;;18.80;62.50;;;;;;5046795;28;20029;-34
2021/03/26 00:34:17;;;;;;;1.58;0.60;;;18.80;62.40;;;;;;5038962;28;20438;-34
2021/03/26 00:36:43;;;;;;;0.55;0.50;;;18.70;62.30;;;;;;5052088;28;20079;-34
2021/03/26 00:39:09;;;;;;;0.30;0.30;;;18.80;62.30;;;;;;5048888;28;20082;-36
2021/03/26 00:41:35;;;;;;;3.00;0.60;;;18.80;62.40;;;;;;5050994;28;20036;-34
2021/03/26 00:44:01;;;;;;;0.60;0.60;;;18.80;62.50;;;;;;5049900;28;20025;-34
2021/03/26 00:46:26;;;;;;;0.63;0.50;;;18.70;62.50;;;;;;5041131;28;20862;-35
2021/03/26 00:48:52;;;;;;;0.45;0.45;;;18.70;62.50;;;;;;5049587;28;20029;-40
2021/03/26 00:51:18;;;;;;;0.47;0.38;;;18.70;62.40;;;;;;5051511;28;20573;-35
2021/03/26 00:53:43;;;;;;;0.50;0.50;;;18.80;62.60;;;;;;5040672;28;20025;-35
2021/03/26 00:56:09;;;;;;;0.47;0.43;;;18.80;62.50;;;;;;5046610;28;20029;-35
2021/03/26 00:58:34;;;;;;;0.40;0.40;;;18.80;62.40;;;;;;5049793;28;20052;-34
2021/03/26 01:01:00;;;;;;;0.40;0.40;;;18.80;62.50;;;;;;5040191;28;20419;-33
2021/03/26 01:03:27;;;;;;;0.35;0.35;;;18.70;63.30;;;;;;5050843;28;20522;-33
2021/03/26 01:05:54;;;;;;;0.38;0.38;;;18.80;62.40;;;;;;5047059;28;20141;-35
2021/03/26 01:08:21;;;;;;;0.45;0.35;;;18.70;62.40;;;;;;5049641;28;20027;-36
2021/03/26 01:10:56;;;;;;;0.47;0.47;;;18.70;62.40;;;;;;5050318;28;20119;-34
2021/03/26 01:13:21;;;;;;;0.50;0.50;;;18.70;62.60;;;;;;5049440;28;20024;-34
2021/03/26 01:15:47;;;;;;;0.30;0.30;;;18.70;62.50;;;;;;5065935;28;20445;-32
2021/03/26 01:18:26;;;;;;;0.43;0.40;;;18.70;62.30;;;;;;5050890;28;20099;-34
2021/03/26 01:20:51;;;;;;;0.60;0.50;;;18.70;62.40;;;;;;5049007;28;20047;-33
2021/03/26 01:23:17;;;;;;;0.40;0.40;;;18.70;62.30;;;;;;5046659;28;20021;-35
2021/03/26 01:25:42;;;;;;;0.40;0.32;;;18.70;62.30;;;;;;5042171;28;20060;-37
2021/03/26 01:28:09;;;;;;;0.77;0.40;;;18.70;62.30;;;;;;5050000;28;20071;-34
2021/03/26 01:30:35;;;;;;;0.52;0.40;;;18.70;62.30;;;;;;5040616;28;20119;-34
2021/03/26 01:33:00;;;;;;;0.52;0.50;;;18.70;62.30;;;;;;5042795;28;20108;-34
2021/03/26 01:35:27;;;;;;;1.20;0.47;;;18.70;62.40;;;;;;5041027;28;20071;-35
2021/03/26 01:37:52;;;;;;;0.88;0.55;;;18.70;62.30;;;;;;5042783;28;20471;-35
2021/03/26 01:40:24;;;;;;;0.73;0.73;;;18.70;62.30;;;;;;5047073;28;20082;-34
2021/03/26 01:42:50;;;;;;;0.38;0.30;;;18.70;62.30;;;;;;5046125;28;20079;-32
2021/03/26 01:45:21;;;;;;;0.40;0.30;;;18.70;62.30;;;;;;5039086;28;20579;-36
2021/03/26 01:47:47;;;;;;;0.30;0.30;;;18.70;62.30;;;;;;5049827;28;20029;-33
2021/03/26 01:50:14;;;;;;;0.50;0.50;;;18.60;62.10;;;;;;5049261;28;20029;-34
2021/03/26 01:52:39;;;;;;;0.63;0.63;;;18.70;62.00;;;;;;5049294;28;20032;-35
2021/03/26 01:55:06;;;;;;;0.40;0.40;;;18.60;62.20;;;;;;5050264;28;20032;-32
2021/03/26 01:57:32;;;;;;;1.85;0.60;;;18.70;62.30;;;;;;5049870;28;20048;-34
2021/03/26 01:59:58;;;;;;;0.55;0.32;;;18.70;62.10;;;;;;5045178;28;20025;-35
2021/03/26 02:02:24;;;;;;;0.30;0.30;;;18.70;62.00;;;;;;5046850;28;20084;-34
2021/03/26 02:04:49;;;;;;;0.47;0.47;;;18.70;62.00;;;;;;5045616;28;20497;-32
2021/03/26 02:07:16;;;;;;;0.38;0.38;;;18.70;62.10;;;;;;5048672;28;20056;-33
2021/03/26 02:09:41;;;;;;;0.30;0.30;;;18.70;62.00;;;;;;5048586;28;20506;-34
2021/03/26 02:12:12;;;;;;;1.75;0.50;;;18.70;62.10;;;;;;5046485;28;20075;-32
2021/03/26 02:14:39;;;;;;;0.30;0.30;;;18.60;62.00;;;;;;5026973;28;20108;-34
2021/03/26 02:17:06;;;;;;;0.38;0.30;;;18.60;62.20;;;;;;5045152;28;20112;-34
2021/03/26 02:19:39;;;;;;;0.70;0.30;;;18.60;62.00;;;;;;5031681;28;20017;-37
2021/03/26 02:22:05;;;;;;;0.30;0.30;;;18.70;62.10;;;;;;5037728;28;20044;-29
2021/03/26 02:24:31;;;;;;;0.88;0.40;;;18.70;62.10;;;;;;5035559;28;20025;-35
2021/03/26 02:27:04;;;;;;;0.32;0.32;;;18.60;62.00;;;;;;5034889;28;20459;-44
2021/03/26 02:29:32;;;;;;;0.50;0.50;;;18.60;62.10;;;;;;5041094;28;20033;-33
2021/03/26 02:32:08;;;;;;;0.57;0.57;;;18.60;62.10;;;;;;5042431;28;20029;-41
2021/03/26 02:34:34;;;;;;;0.40;0.30;;;18.60;62.20;;;;;;5050737;28;20051;-35
2021/03/26 02:37:02;;;;;;;1.30;0.50;;;18.60;62.00;;;;;;5047128;28;20540;-33
2021/03/26 02:39:44;;;;;;;0.40;0.40;;;18.60;62.10;;;;;;5048950;28;20029;-33
2021/03/26 02:42:18;;;;;;;0.98;0.35;;;18.60;62.10;;;;;;5044012;28;20036;-35
2021/03/26 02:45:10;;;;;;;0.30;0.30;;;18.60;62.00;;;;;;5045344;28;20116;-34
2021/03/26 02:47:42;;;;;;;0.63;0.40;;;18.60;62.00;;;;;;5039801;28;20048;-31
2021/03/26 02:50:16;;;;;;;0.50;0.40;;;18.60;61.90;;;;;;5028470;28;20127;-33
2021/03/26 02:53:02;;;;;;;0.40;0.40;;;18.60;62.00;;;;;;5040489;28;20410;-37
2021/03/26 02:55:49;;;;;;;0.70;0.45;;;18.60;62.00;;;;;;5040809;28;20033;-34
2021/03/26 02:58:27;;;;;;;0.30;0.30;;;18.60;61.80;;;;;;5037517;28;20037;-36
2021/03/26 03:01:05;;;;;;;0.40;0.40;;;18.60;61.80;;;;;;5048293;28;20509;-33
2021/03/26 03:03:31;;;;;;;0.50;0.50;;;18.60;61.80;;;;;;5046820;28;20037;-36
2021/03/26 03:06:11;;;;;;;0.40;0.40;;;18.70;61.60;;;;;;5032299;28;20423;-35
2021/03/26 03:08:36;;;;;;;0.40;0.40;;;18.70;61.60;;;;;;5048353;28;20051;-34
2021/03/26 03:11:25;;;;;;;0.50;0.50;;;18.70;61.40;;;;;;5048021;28;20387;-34
2021/03/26 03:13:55;;;;;;;1.25;0.60;;;18.70;61.30;;;;;;5047338;28;20036;-34
2021/03/26 03:16:32;;;;;;;0.60;0.40;;;18.70;61.50;;;;;;5047393;28;20146;-34
2021/03/26 03:19:14;;;;;;;0.32;0.32;;;18.70;61.40;;;;;;5042778;28;20741;-33
2021/03/26 03:21:42;;;;;;;0.32;0.30;;;18.70;61.10;;;;;;5048412;28;20047;-36
2021/03/26 03:24:26;;;;;;;0.50;0.45;;;18.80;61.10;;;;;;5033305;28;20091;-33
2021/03/26 03:27:05;;;;;;;0.40;0.40;;;18.80;61.00;;;;;;5048964;28;20135;-34
2021/03/26 03:29:58;;;;;;;0.40;0.40;;;18.80;61.20;;;;;;5050511;28;20076;-38
2021/03/26 03:33:00;;;;;;;0.40;0.40;;;18.70;61.00;;;;;;5051152;28;20033;-35
2021/03/26 03:35:48;;;;;;;0.40;0.40;;;18.80;60.90;;;;;;4964768;28;20078;-32
2021/03/26 03:38:28;;;;;;;0.50;0.50;;;18.80;60.80;;;;;;4977319;28;20054;-35
2021/03/26 03:41:00;;;;;;;0.30;0.30;;;18.80;60.90;;;;;;4985270;28;20042;-33
2021/03/26 03:43:35;;;;;;;0.30;0.30;;;18.70;61.00;;;;;;4975501;28;20038;-33
2021/03/26 03:46:22;;;;;;;0.50;0.50;;;18.80;61.10;;;;;;4972964;28;20471;-33
2021/03/26 03:48:56;;;;;;;0.45;0.40;;;18.80;60.80;;;;;;4973912;28;20029;-34
2021/03/26 03:51:27;;;;;;;0.32;0.32;;;18.90;60.60;;;;;;4972974;28;20397;-32
2021/03/26 03:53:57;;;;;;;0.30;0.30;;;18.90;60.60;;;;;;4973372;28;20567;-33
2021/03/26 03:56:36;;;;;;;0.30;0.30;;;18.80;60.70;;;;;;4970696;28;20495;-34
2021/03/26 03:59:10;;;;;;;0.20;0.20;;;18.80;60.80;;;;;;4974354;28;20523;-33
2021/03/26 04:01:39;;;;;;;0.47;0.47;;;18.80;60.90;;;;;;4968705;28;20141;-36
2021/03/26 04:04:07;;;;;;;0.50;0.50;;;18.80;60.80;;;;;;4970019;28;20029;-34
2021/03/26 04:06:54;;;;;;;0.40;0.40;;;18.80;60.90;;;;;;4973640;28;20054;-38
2021/03/26 04:09:20;;;;;;;0.40;0.30;;;18.90;60.80;;;;;;4990733;28;20492;-33
2021/03/26 04:11:54;;;;;;;0.28;0.20;;;18.80;60.70;;;;;;4988341;28;20041;-35
2021/03/26 04:14:24;;;;;;;0.40;0.40;;;18.80;60.60;;;;;;5050548;28;20495;-36
2021/03/26 04:16:54;;;;;;;0.30;0.30;;;18.80;60.50;;;;;;5049764;28;20107;-33
2021/03/26 04:19:37;;;;;;;0.20;0.20;;;18.80;60.90;;;;;;5050894;28;20056;-34
2021/03/26 04:22:16;;;;;;;2.22;0.38;;;18.70;61.00;;;;;;5047753;28;20120;-35
2021/03/26 04:25:09;;;;;;;0.30;0.30;;;18.70;60.90;;;;;;5035525;28;20017;-34
2021/03/26 04:27:43;;;;;;;0.30;0.30;;;18.70;60.90;;;;;;5038916;28;20049;-34
2021/03/26 04:30:17;;;;;;;0.35;0.35;;;18.70;61.00;;;;;;5032446;28;20410;-34
2021/03/26 04:32:42;;;;;;;0.50;0.32;;;18.90;60.70;;;;;;5031032;28;20076;-34
2021/03/26 04:35:09;;;;;;;2.28;0.30;;;18.90;60.60;;;;;;5051081;28;20041;-32
2021/03/26 04:38:00;;;;;;;0.30;0.30;;;18.90;60.40;;;;;;5051096;28;20092;-39
2021/03/26 04:40:33;;;;;;;0.30;0.28;;;18.80;60.50;;;;;;5041991;28;20570;-31
2021/03/26 04:43:14;;;;;;;0.30;0.25;;;18.80;60.50;;;;;;5049657;28;20502;-36
2021/03/26 04:46:10;;;;;;;0.30;0.30;;;18.80;60.50;;;;;;5040741;28;20040;-33
2021/03/26 04:48:38;;;;;;;0.65;0.30;;;18.80;60.50;;;;;;5050283;28;20028;-33
2021/03/26 04:51:31;;;;;;;0.38;0.38;;;18.90;60.30;;;;;;5034276;28;20029;-33
2021/03/26 04:54:17;;;;;;;0.20;0.20;;;18.90;60.40;;;;;;5049650;28;20059;-33
2021/03/26 04:56:48;;;;;;;0.15;0.15;;;18.80;60.50;;;;;;5050295;28;20029;-35
2021/03/26 04:59:14;;;;;;;0.20;0.20;;;18.80;60.40;;;;;;5049000;28;20037;-33
2021/03/26 05:01:41;;;;;;;0.32;0.30;;;18.90;60.40;;;;;;5049452;28;20021;-35
2021/03/26 05:04:22;;;;;;;0.20;0.20;;;18.80;60.40;;;;;;5044450;28;20470;-34
2021/03/26 05:07:02;;;;;;;0.20;0.20;;;18.80;60.40;;;;;;5040749;28;20044;-34
2021/03/26 05:09:31;;;;;;;0.22;0.22;;;18.90;60.30;;;;;;5049136;28;20045;-34
2021/03/26 05:12:07;;;;;;;0.20;0.20;;;18.80;60.40;;;;;;5046249;28;20103;-37
2021/03/26 05:14:37;;;;;;;0.35;0.20;;;18.90;60.30;;;;;;5048592;28;20032;-39
2021/03/26 05:17:12;;;;;;;0.40;0.30;;;18.90;60.30;;;;;;5046347;28;20056;-34
2021/03/26 05:19:42;;;;;;;0.20;0.20;;;18.90;60.20;;;;;;5045155;28;20039;-34
2021/03/26 05:22:45;;;;;;;0.20;0.20;;;19.00;60.10;;;;;;5048812;28;20609;-34
2021/03/26 05:25:34;;;;;;;0.25;0.25;;;18.90;60.10;;;;;;5047252;28;20119;-36
2021/03/26 05:28:00;;;;;;;0.30;0.30;;;18.90;60.20;;;;;;5044849;28;20495;-34
2021/03/26 05:30:34;;;;;;;0.20;0.20;;;18.90;60.20;;;;;;5046897;28;20098;-35
2021/03/26 05:33:20;;;;;;;0.30;0.20;;;18.90;60.10;;;;;;5029763;28;20060;-33
2021/03/26 05:36:22;;;;;;;0.20;0.10;;;18.90;60.20;;;;;;5048042;28;20032;-34
2021/03/26 05:38:54;;;;;;;1.95;0.40;;;18.80;60.20;;;;;;5047685;28;20025;-37
2021/03/26 05:41:46;;;;;;;0.17;0.17;;;18.90;60.20;;;;;;5042872;28;20029;-33
2021/03/26 05:44:23;;;;;;;0.50;0.40;;;18.90;60.10;;;;;;5046848;28;20471;-38
2021/03/26 05:47:16;;;;;;;0.15;0.15;;;18.90;60.10;;;;;;5048191;28;20032;-30
2021/03/26 05:50:00;;;;;;;0.30;0.30;;;18.90;60.10;;;;;;5045479;28;20457;-33
2021/03/26 05:52:41;;;;;;;0.28;0.28;;;18.90;60.10;;;;;;5045639;28;20039;-36
2021/03/26 05:55:55;;;;;;;0.30;0.30;;;19.00;60.00;;;;;;5045716;28;20573;-34
2021/03/26 05:58:24;;;;;;;0.20;0.20;;;19.00;59.90;;;;;;4986290;28;20030;-32
2021/03/26 06:01:10;;;;;;;0.20;0.20;;;19.00;59.90;;;;;;4986395;28;20046;-32
2021/03/26 06:04:13;;;;;;;0.30;0.30;;;19.00;59.80;;;;;;4984767;28;20176;-39
2021/03/26 06:06:41;;;;;;;0.30;0.30;;;19.00;59.60;;;;;;4985640;28;20594;-34
2021/03/26 06:09:31;;;;;;;0.20;0.20;;;19.00;60.10;;;;;;4987088;28;20038;-34
2021/03/26 06:12:20;;;;;;;0.20;0.20;;;18.90;60.30;;;;;;4618196;28;10000526;-35
2021/03/26 06:15:20;;;;;;;0.30;0.30;;;18.90;60.20;;;;;;4981956;28;20039;-36
2021/03/26 06:18:04;;;;;;;0.85;0.30;;;19.00;60.10;;;;;;4991822;28;20068;-38
2021/03/26 06:20:58;;;;;;;0.20;0.20;;;19.00;59.90;;;;;;4977415;28;20058;-33
2021/03/26 06:23:52;;;;;;;0.25;0.20;;;19.00;59.90;;;;;;4967741;28;20090;-33
2021/03/26 06:26:42;;;;;;;1.10;0.20;;;19.00;59.80;;;;;;4972852;28;20058;-35
2021/03/26 06:29:35;;;;;;;0.30;0.30;;;19.00;59.90;;;;;;4968309;28;20039;-35
2021/03/26 06:32:13;;;;;;;0.30;0.30;;;19.00;60.30;;;;;;5005084;28;20052;-34
2021/03/26 06:34:44;;;;;;;0.30;0.25;;;18.90;60.10;;;;;;5041710;28;20025;-34
2021/03/26 06:37:26;;;;;;;0.30;0.25;;;18.90;60.60;;;;;;5048304;28;20173;-34
2021/03/26 06:40:08;;;;;;;1.85;0.40;;;18.70;61.30;;;;;;5031039;28;20029;-34
2021/03/26 06:42:46;;;;;;;0.20;0.20;;;18.60;61.40;;;;;;5043599;28;20051;-34
2021/03/26 06:45:33;;;;;;;0.22;0.20;;;18.70;61.10;;;;;;5043716;28;20032;-33
2021/03/26 06:48:14;;;;;;;0.82;0.40;;;18.70;61.00;;;;;;5046619;28;20040;-34
2021/03/26 06:51:01;;;;;;;0.20;0.20;;;18.80;61.20;;;;;;5046741;28;20495;-34
2021/03/26 06:53:39;;;;;;;2.72;0.43;;;18.70;61.40;;;;;;5046408;28;20507;-33
2021/03/26 06:56:20;;;;;;;0.20;0.20;;;18.70;61.50;;;;;;5045701;28;20438;-34
2021/03/26 06:59:17;;;;;;;0.30;0.30;;;18.70;61.40;;;;;;5041668;28;20033;-33
2021/03/26 07:02:19;;;;;;;0.35;0.20;;;18.70;61.30;;;;;;5050561;28;20025;-32
2021/03/26 07:05:01;;;;;;;0.30;0.20;;;18.80;61.20;;;;;;5051247;28;20111;-34
2021/03/26 07:07:50;;;;;;;0.82;0.22;;;18.80;60.80;;;;;;5050701;28;20529;-36
2021/03/26 07:10:23;;;;;;;0.25;0.22;;;18.90;60.80;;;;;;5050126;28;20065;-34
2021/03/26 07:13:09;;;;;;;0.17;0.17;;;18.70;60.90;;;;;;5049959;28;20022;-33
2021/03/26 07:16:07;;;;;;;0.30;0.30;;;18.70;61.70;;;;;;5052013;28;20033;-35
2021/03/26 07:19:00;;;;;;;0.10;0.10;;;18.60;61.90;;;;;;5046859;28;20052;-32
2021/03/26 07:22:03;;;;;;;0.40;0.30;;;18.50;63.00;;;;;;5051440;28;20029;-34
2021/03/26 07:24:40;;;;;;;0.90;0.25;;;18.40;63.80;;;;;;5051879;28;20090;-34
2021/03/26 07:27:19;;;;;;;0.77;0.40;;;18.40;64.60;;;;;;5052423;28;20032;-33
2021/03/26 07:29:52;;;;;;;1.65;0.43;;;18.40;64.90;;;;;;5051379;28;20079;-31
2021/03/26 07:32:18;;;;;;;0.35;0.30;;;18.40;64.80;;;;;;5039202;28;20072;-34
2021/03/26 07:35:04;;;;;;;0.47;0.30;;;18.40;65.00;;;;;;5048749;28;20029;-33
2021/03/26 07:37:52;;;;;;;0.28;0.20;;;18.50;64.70;;;;;;5051664;28;20408;-37
2021/03/26 07:40:38;;;;;;;2.25;0.35;;;18.50;64.20;;;;;;5047202;28;20037;-34
2021/03/26 07:43:31;;;;;;;0.30;0.20;;;18.50;64.70;;;;;;5053552;28;20114;-35
2021/03/26 07:46:19;;;;;;;2.00;0.43;;;18.40;64.60;;;;;;5057499;28;20048;-40
2021/03/26 07:49:09;;;;;;;0.20;0.20;;;18.40;64.40;;;;;;5059017;28;20398;-35
2021/03/26 07:51:57;;;;;;;0.95;0.52;;;18.40;64.50;;;;;;5052092;28;20059;-32
2021/03/26 07:54:33;;;;;;;0.40;0.35;;;18.40;64.20;;;;;;5058773;28;20036;-34
2021/03/26 07:57:19;;;;;;;1.85;0.80;;;18.50;64.10;;;;;;5052556;28;20045;-33
2021/03/26 08:00:15;;;;;;;0.98;0.30;;;18.50;64.20;;;;;;5033911;28;20500;-33
2021/03/26 08:03:18;;;;;;;0.73;0.30;;;18.50;64.00;;;;;;5058766;28;20030;-34
2021/03/26 08:06:09;;;;;;;0.30;0.20;;;18.50;64.00;;;;;;5052859;28;20037;-40
2021/03/26 08:08:43;;;;;;;0.68;0.32;;;18.60;63.70;;;;;;5052883;28;20032;-33
2021/03/26 08:11:11;;;;;;;;;;;18.60;63.50;;;;;;5051453;28;20035;-34
2021/03/26 08:14:05;;;;;;;2.83;0.20;;;18.60;63.40;;;;;;5052701;28;19905;-34
2021/03/26 08:16:55;;;;;;;0.30;0.30;;;18.60;63.40;;;;;;5052681;28;20474;-33
2021/03/26 08:19:26;;;;;;;0.50;0.25;;;18.60;63.40;;;;;;5056128;28;20032;-35
2021/03/26 08:22:14;;;;;;;0.20;0.20;;;18.60;63.30;;;;;;5051581;28;20029;-32
2021/03/26 08:25:03;;;;;;;0.40;0.15;;;18.60;63.20;;;;;;5051575;28;20071;-32
2021/03/26 08:27:34;;;;;;;0.30;0.20;;;18.70;63.00;;;;;;5049588;28;20033;-33
2021/03/26 08:30:15;;;;;;;0.30;0.20;;;18.70;62.90;;;;;;5053467;28;20040;-38
2021/03/26 08:33:20;;;;;;;0.28;0.20;;;18.70;62.70;;;;;;5050130;28;20035;-34
2021/03/26 08:35:58;;;;;;;0.20;0.20;;;18.80;62.70;;;;;;5051254;28;20111;-35
2021/03/26 08:39:01;;;;;;;0.30;0.30;;;18.80;62.50;;;;;;5051697;28;20388;-37
2021/03/26 08:41:35;;;;;;;0.55;0.30;;;18.80;62.40;;;;;;5052318;28;20031;-35
2021/03/26 08:44:00;;;;;;;0.20;0.20;;;18.90;62.60;;;;;;5050442;28;20032;-34
2021/03/26 08:46:48;;;;;;;0.40;0.38;;;18.90;62.20;;;;;;5051137;28;20426;-35
2021/03/26 08:49:23;;;;;;;0.30;0.20;;;18.90;62.20;;;;;;5052580;28;20377;-35
2021/03/26 08:52:13;;;;;;;0.20;0.20;;;18.90;62.40;;;;;;5037205;28;20449;-35
2021/03/26 08:55:01;;;;;;;0.17;0.17;;;18.80;62.80;;;;;;5062747;28;20499;-35
2021/03/26 08:57:48;;;;;;;0.20;0.20;;;18.90;63.00;;;;;;5051181;28;20044;-36
2021/03/26 09:00:37;;;;;;;0.30;0.20;;;19.00;62.50;;;;;;5052621;28;20043;-32
2021/03/26 09:03:24;;;;;;;0.45;0.20;;;18.90;63.00;;;;;;5051255;28;20040;-33
2021/03/26 09:06:01;;;;;;;0.30;0.30;;;18.90;63.20;;;;;;5052209;28;20538;-34
2021/03/26 09:08:46;;;;;;;0.10;0.10;;;19.00;63.80;;;;;;5050354;28;20017;-33
2021/03/26 09:11:30;;;;;;;0.22;0.20;;;18.90;64.20;;;;;;5051713;28;20067;-35
2021/03/26 09:14:17;;;;;;;0.13;0.13;;;18.90;63.80;;;;;;5052773;28;20028;-33
2021/03/26 09:16:54;;;;;;;0.45;0.30;;;18.90;63.30;;;;;;5044309;28;20139;-34
2021/03/26 09:19:22;;;;;;;0.30;0.20;;;18.90;63.50;;;;;;5050648;28;20021;-34
2021/03/26 09:22:21;;;;;;;0.32;0.30;;;18.90;63.40;;;;;;5048858;28;20021;-33
2021/03/26 09:25:00;;;;;;;0.50;0.30;;;18.90;63.30;;;;;;5050060;28;20144;-36
2021/03/26 09:27:48;;;;;;;0.20;0.20;;;18.90;63.30;;;;;;5049223;28;20074;-31
2021/03/26 09:30:22;;;;;;;0.45;0.20;;;18.90;63.60;;;;;;5048499;28;20566;-33
2021/03/26 09:32:52;;;;;;;0.47;0.32;;;18.90;63.20;;;;;;5048908;28;20036;-34
2021/03/26 09:35:20;;;;;;;0.20;0.20;;;18.80;63.40;;;;;;5045155;28;20044;-36
2021/03/26 09:37:54;;;;;;;0.60;0.20;;;18.80;63.40;;;;;;5048982;28;20398;-35
2021/03/26 09:40:34;;;;;;;0.47;0.15;;;18.80;62.80;;;;;;5046020;28;20039;-34
2021/03/26 09:43:13;;;;;;;0.40;0.22;;;18.90;63.40;;;;;;5031487;28;20063;-39
2021/03/26 09:45:59;;;;;;;0.20;0.20;;;18.80;63.50;;;;;;5046964;28;20380;-35
2021/03/26 09:48:44;;;;;;;0.43;0.30;;;18.90;63.80;;;;;;5048044;28;20052;-34
2021/03/26 09:51:36;;;;;;;0.57;0.20;;;18.80;63.80;;;;;;5049447;28;20104;-34
2021/03/26 09:54:28;;;;;;;0.30;0.20;;;18.80;64.00;;;;;;5057236;28;20033;-34
2021/03/26 09:57:19;;;;;;;0.38;0.28;;;18.80;63.10;;;;;;5046365;28;20044;-36
2021/03/26 09:59:53;;;;;;;0.20;0.20;;;18.90;63.00;;;;;;5044286;28;20041;-35
2021/03/26 10:02:30;;;;;;;1.52;0.40;;;18.90;62.70;;;;;;5049005;28;20460;-35
2021/03/26 10:05:03;;;;;;;0.20;0.20;;;19.00;62.50;;;;;;5043072;28;20028;-35
2021/03/26 10:07:50;;;;;;;0.52;0.20;;;18.90;62.20;;;;;;5048721;28;20119;-33
2021/03/26 10:12:55;;;;;;;0.10;0.10;;;19.00;62.20;;;;;;5031231;28;20048;-34
2021/03/26 10:16:00;;;;;;;0.40;0.28;;;18.90;62.30;;;;;;5048931;28;20483;-35
2021/03/26 10:18:47;;;;;;;0.52;0.20;;;18.90;63.30;;;;;;5041749;28;20037;-35
2021/03/26 10:21:33;;;;;;;0.13;0.13;;;18.90;63.60;;;;;;5032572;28;20052;-34
2021/03/26 10:24:20;;;;;;;0.20;0.20;;;18.80;64.00;;;;;;5049648;28;20048;-34
2021/03/26 10:27:02;;;;;;;0.40;0.20;;;18.80;63.70;;;;;;5033344;28;20419;-36
2021/03/26 10:29:29;;;;;;;0.10;0.10;;;18.90;64.00;;;;;;5050492;28;20066;-36
2021/03/26 10:31:55;;;;;;;0.50;0.20;;;18.90;62.90;;;;;;5048169;28;20025;-34
2021/03/26 10:34:35;;;;;;;0.20;0.10;;;18.90;62.90;;;;;;5048887;28;20724;-35
2021/03/26 10:37:13;;;;;;;0.63;0.22;;;19.00;63.20;;;;;;5048892;28;20094;-34
2021/03/26 10:40:07;;;;;;;2.17;0.30;;;19.00;62.80;;;;;;5048788;28;20067;-34
2021/03/26 10:42:43;;;;;;;0.20;0.20;;;19.10;62.50;;;;;;5047524;28;20045;-34
2021/03/26 10:45:39;;;;;;;0.20;0.20;;;19.10;62.30;;;;;;5034889;28;20029;-34
2021/03/26 10:48:43;;;;;;;0.10;0.10;;;19.10;62.50;;;;;;5049879;28;20491;-35
2021/03/26 10:51:27;;;;;;;0.25;0.15;;;19.20;62.60;;;;;;5050926;28;20033;-33
2021/03/26 10:54:15;;;;;;;0.40;0.20;;;19.10;62.60;;;;;;5049736;28;20028;-35
2021/03/26 10:56:49;;;;;;;1.55;0.30;;;19.20;62.40;;;;;;5046131;28;20039;-36
2021/03/26 10:59:53;;;;;;;0.30;0.10;;;19.20;62.40;;;;;;5050137;28;20039;-36
2021/03/26 11:02:53;;;;;;;0.30;0.30;;;19.10;62.60;;;;;;5050509;28;20035;-36
2021/03/26 11:05:24;;;;;;;1.83;0.38;;;19.20;62.60;;;;;;5048384;28;20048;-35
2021/03/26 11:08:01;;;;;;;0.63;0.30;;;19.20;62.60;;;;;;5048939;28;20047;-35
2021/03/26 11:10:35;;;;;;;1.75;0.25;;;19.20;62.60;;;;;;5050008;28;20055;-38
2021/03/26 11:13:04;;;;;;;3.70;0.30;;;19.20;62.50;;;;;;5050128;28;20116;-36
2021/03/26 11:15:32;;;;;;;0.95;0.22;;;19.20;62.60;;;;;;5049161;28;20035;-34
2021/03/26 11:18:12;;;;;;;0.68;0.30;;;19.20;62.60;;;;;;5033049;28;20056;-37
2021/03/26 11:20:51;;;;;;;0.70;0.25;;;19.20;62.60;;;;;;5050684;28;20095;-35
2021/03/26 11:23:25;;;;;;;0.82;0.30;;;19.20;62.70;;;;;;5048741;28;20021;-35
2021/03/26 11:26:06;;;;;;;0.40;0.30;;;19.20;62.80;;;;;;5048462;28;20048;-41
2021/03/26 11:28:37;;;;;;;0.40;0.30;;;19.10;62.70;;;;;;5049604;28;20108;-34
2021/03/26 11:31:31;;;;;;;0.43;0.43;;;19.10;62.80;;;;;;5050262;28;20509;-34
2021/03/26 11:34:07;;;;;;;1.87;0.47;;;19.20;62.70;;;;;;4975075;28;20035;-38
2021/03/26 11:36:48;;;;;;;0.55;0.30;;;19.20;62.70;;;;;;4988713;28;20124;-41
2021/03/26 11:39:19;;;;;;;0.20;0.20;;;19.20;62.90;;;;;;4984714;28;20444;-39
2021/03/26 11:42:05;;;;;;;0.20;0.10;;;19.10;62.80;;;;;;4987820;28;20041;-41
2021/03/26 11:44:33;;;;;;;0.40;0.35;;;19.10;62.70;;;;;;4988314;28;20487;-40
2021/03/26 11:47:02;;;;;;;0.30;0.10;;;19.10;63.00;;;;;;4974878;28;20030;-40
2021/03/26 11:49:40;;;;;;;0.82;0.35;;;19.10;63.30;;;;;;5006649;28;20030;-44
2021/03/26 11:52:08;;;;;;;0.90;0.20;;;19.10;63.30;;;;;;4629050;28;10000334;-42
2021/03/26 11:54:42;;;;;;;0.17;0.17;;;19.10;63.00;;;;;;4971833;28;20052;-42
2021/03/26 11:57:34;;;;;;;0.20;0.20;;;19.20;62.80;;;;;;4988068;28;20038;-42
2021/03/26 12:00:06;;;;;;;0.60;0.60;;;19.20;62.70;;;;;;4988526;28;20070;-42
2021/03/26 12:02:51;;;;;;;0.35;0.15;;;19.20;62.60;;;;;;4987460;28;20057;-41
2021/03/26 12:05:35;;;;;;;0.30;0.20;;;19.20;62.50;;;;;;4979475;28;20108;-42
2021/03/26 12:08:07;;;;;;;0.22;0.22;;;19.30;62.40;;;;;;4971892;28;20047;-42
2021/03/26 12:10:57;;;;;;;0.28;0.20;;;19.40;62.10;;;;;;5017734;28;20624;-42
2021/03/26 12:13:36;;;;;;;1.58;0.30;;;19.40;62.30;;;;;;5047977;28;20088;-41
2021/03/26 12:16:18;;;;;;;0.57;0.22;;;19.30;62.30;;;;;;5048165;28;20041;-42
2021/03/26 12:18:53;;;;;;;0.77;0.20;;;19.50;62.20;;;;;;5037962;28;20028;-44
2021/03/26 12:21:41;;;;;;;0.25;0.20;;;19.50;61.90;;;;;;5043038;28;20025;-41
2021/03/26 12:24:22;;;;;;;0.57;0.25;;;19.50;62.00;;;;;;5048527;28;20041;-42
2021/03/26 12:27:17;;;;;;;0.32;0.30;;;19.50;62.10;;;;;;5039241;28;20045;-42
2021/03/26 12:29:46;;;;;;;0.32;0.15;;;19.50;62.10;;;;;;5036051;28;20207;-42
2021/03/26 12:32:19;;;;;;;0.20;0.20;;;19.40;62.10;;;;;;5049425;28;20064;-41
2021/03/26 12:34:51;;;;;;;0.68;0.20;;;19.40;62.10;;;;;;5051686;28;20028;-42
2021/03/26 12:37:42;;;;;;;0.43;0.20;;;19.40;62.20;;;;;;5051418;28;20029;-37
2021/03/26 12:40:33;;;;;;;0.13;0.10;;;19.40;62.10;;;;;;5034911;28;20530;-41
2021/03/26 12:43:03;;;;;;;1.17;0.25;;;19.40;62.10;;;;;;5037168;28;20019;-44
2021/03/26 12:45:42;;;;;;;0.57;0.25;;;19.40;62.30;;;;;;5045484;28;20047;-42
2021/03/26 12:48:14;;;;;;;0.20;0.13;;;19.40;62.20;;;;;;5045707;28;20438;-42
2021/03/26 12:50:46;;;;;;;0.30;0.20;;;19.30;62.10;;;;;;5045882;28;20025;-42
2021/03/26 12:53:14;;;;;;;0.57;0.40;;;19.40;61.90;;;;;;5043345;28;20032;-35
2021/03/26 12:55:52;;;;;;;0.50;0.25;;;19.40;61.90;;;;;;5049292;28;20017;-37
2021/03/26 12:58:29;;;;;;;0.30;0.30;;;19.40;61.70;;;;;;5049572;28;20411;-41
2021/03/26 13:01:21;;;;;;;1.58;0.40;;;19.40;61.60;;;;;;5049406;28;20460;-35
2021/03/26 13:04:06;;;;;;;0.63;0.25;;;19.40;62.00;;;;;;5043411;28;20033;-43
2021/03/26 13:06:34;;;;;;;0.88;0.20;;;19.30;62.10;;;;;;5047514;28;20036;-41
2021/03/26 13:09:19;;;;;;;0.70;0.32;;;19.40;62.20;;;;;;5045615;28;20039;-44
2021/03/26 13:11:44;;;;;;;0.70;0.35;;;19.40;62.50;;;;;;5048433;28;20423;-42
2021/03/26 13:14:29;;;;;;;0.75;0.20;;;19.40;62.40;;;;;;5050405;28;20104;-41
2021/03/26 13:16:55;;;;;;;0.30;0.22;;;19.30;62.30;;;;;;5049846;28;20049;-37
2021/03/26 13:19:20;;;;;;;0.28;0.20;;;19.40;62.00;;;;;;5051887;28;20020;-42
2021/03/26 13:21:52;;;;;;;0.47;0.30;;;19.40;61.80;;;;;;5051686;28;20040;-41
2021/03/26 13:24:23;;;;;;;0.20;0.20;;;19.40;61.80;;;;;;5051690;28;20025;-41
2021/03/26 13:27:17;;;;;;;0.10;0.10;;;19.40;61.70;;;;;;5051954;28;20041;-42
2021/03/26 13:30:00;;;;;;;0.30;0.30;;;19.50;61.80;;;;;;5050698;28;20106;-43
2021/03/26 13:32:38;;;;;;;0.47;0.47;;;19.50;61.80;;;;;;5050278;28;20111;-41
2021/03/26 13:35:05;;;;;;;0.40;0.30;;;19.50;62.00;;;;;;5050075;28;20029;-41
2021/03/26 13:37:32;;;;;;;0.50;0.30;;;19.40;61.90;;;;;;5050353;28;20036;-42
2021/03/26 13:40:05;;;;;;;0.60;0.20;;;19.40;62.10;;;;;;5050276;28;20025;-42
2021/03/26 13:42:42;;;;;;;1.27;0.40;;;19.40;61.90;;;;;;5051017;28;20036;-41
2021/03/26 13:45:29;;;;;;;0.63;0.30;;;19.40;61.70;;;;;;5035341;28;20448;-37